sensor_id;sensor_type;location;lat;lon;timestamp;pressure;altitude;pressure_sealevel;temperature;humidity
62946;BME280;52164;52.212;-1.010;2023-02-23T00:00:54;100635.16;;;5.70;78.77
62946;BME280;52164;52.212;-1.010;2023-02-23T00:03:19;100635.73;;;5.72;79.08
62946;BME280;52164;52.212;-1.010;2023-02-23T00:05:44;100635.74;;;5.73;78.87
62946;BME280;52164;52.212;-1.010;2023-02-23T00:08:10;100638.08;;;5.74;78.82
62946;BME280;52164;52.212;-1.010;2023-02-23T00:10:35;100634.54;;;5.74;78.72
62946;BME280;52164;52.212;-1.010;2023-02-23T00:13:00;100634.16;;;5.73;78.69
62946;BME280;52164;52.212;-1.010;2023-02-23T00:15:26;100634.48;;;5.71;78.41
62946;BME280;52164;52.212;-1.010;2023-02-23T00:17:53;100637.43;;;5.69;78.42
62946;BME280;52164;52.212;-1.010;2023-02-23T00:20:19;100635.95;;;5.67;78.60
62946;BME280;52164;52.212;-1.010;2023-02-23T00:22:51;100642.08;;;5.63;78.41
62946;BME280;52164;52.212;-1.010;2023-02-23T00:25:18;100645.35;;;5.59;78.32
62946;BME280;52164;52.212;-1.010;2023-02-23T00:27:43;100645.10;;;5.55;78.28
62946;BME280;52164;52.212;-1.010;2023-02-23T00:30:11;100649.86;;;5.55;78.42
62946;BME280;52164;52.212;-1.010;2023-02-23T00:32:37;100647.17;;;5.53;78.27
62946;BME280;52164;52.212;-1.010;2023-02-23T00:35:02;100650.30;;;5.51;78.41
62946;BME280;52164;52.212;-1.010;2023-02-23T00:37:27;100649.05;;;5.50;78.32
62946;BME280;52164;52.212;-1.010;2023-02-23T00:39:53;100649.05;;;5.50;78.43
62946;BME280;52164;52.212;-1.010;2023-02-23T00:42:20;100647.67;;;5.52;78.49
62946;BME280;52164;52.212;-1.010;2023-02-23T00:44:45;100650.35;;;5.53;78.52
62946;BME280;52164;52.212;-1.010;2023-02-23T00:47:13;100642.00;;;5.52;78.24
62946;BME280;52164;52.212;-1.010;2023-02-23T00:49:38;100641.48;;;5.52;78.41
62946;BME280;52164;52.212;-1.010;2023-02-23T00:52:03;100645.17;;;5.51;78.35
62946;BME280;52164;52.212;-1.010;2023-02-23T00:54:29;100646.40;;;5.51;78.45
62946;BME280;52164;52.212;-1.010;2023-02-23T00:56:54;100646.19;;;5.49;78.41
62946;BME280;52164;52.212;-1.010;2023-02-23T00:59:20;100646.49;;;5.47;78.50
62946;BME280;52164;52.212;-1.010;2023-02-23T01:01:45;100645.96;;;5.46;78.47
62946;BME280;52164;52.212;-1.010;2023-02-23T01:04:11;100648.61;;;5.46;78.42
62946;BME280;52164;52.212;-1.010;2023-02-23T01:06:37;100647.22;;;5.47;78.33
62946;BME280;52164;52.212;-1.010;2023-02-23T01:09:05;100650.05;;;5.47;78.08
62946;BME280;52164;52.212;-1.010;2023-02-23T01:11:31;100651.42;;;5.45;77.90
62946;BME280;52164;52.212;-1.010;2023-02-23T01:13:57;100649.60;;;5.43;78.10
62946;BME280;52164;52.212;-1.010;2023-02-23T01:16:24;100649.05;;;5.42;78.09
62946;BME280;52164;52.212;-1.010;2023-02-23T01:18:52;100652.02;;;5.40;77.87
62946;BME280;52164;52.212;-1.010;2023-02-23T01:21:19;100651.80;;;5.39;78.17
62946;BME280;52164;52.212;-1.010;2023-02-23T01:23:45;100651.77;;;5.38;78.12
62946;BME280;52164;52.212;-1.010;2023-02-23T01:26:15;100656.50;;;5.36;78.07
62946;BME280;52164;52.212;-1.010;2023-02-23T01:28:40;100659.98;;;5.33;78.13
62946;BME280;52164;52.212;-1.010;2023-02-23T01:31:07;100660.29;;;5.31;78.13
62946;BME280;52164;52.212;-1.010;2023-02-23T01:33:33;100657.79;;;5.29;78.01
62946;BME280;52164;52.212;-1.010;2023-02-23T01:35:58;100659.70;;;5.28;78.07
62946;BME280;52164;52.212;-1.010;2023-02-23T01:38:27;100661.11;;;5.27;78.11
62946;BME280;52164;52.212;-1.010;2023-02-23T01:40:52;100662.51;;;5.27;78.03
62946;BME280;52164;52.212;-1.010;2023-02-23T01:43:19;100663.04;;;5.27;77.90
62946;BME280;52164;52.212;-1.010;2023-02-23T01:45:50;100669.05;;;5.27;77.83
62946;BME280;52164;52.212;-1.010;2023-02-23T01:48:16;100667.59;;;5.26;77.81
62946;BME280;52164;52.212;-1.010;2023-02-23T01:51:01;100670.77;;;5.25;78.05
62946;BME280;52164;52.212;-1.010;2023-02-23T01:53:28;100667.77;;;5.26;77.88
62946;BME280;52164;52.212;-1.010;2023-02-23T01:55:56;100669.27;;;5.29;77.99
62946;BME280;52164;52.212;-1.010;2023-02-23T01:58:24;100670.05;;;5.32;78.04
62946;BME280;52164;52.212;-1.010;2023-02-23T02:00:52;100672.08;;;5.35;78.11
62946;BME280;52164;52.212;-1.010;2023-02-23T02:03:23;100672.30;;;5.38;78.00
62946;BME280;52164;52.212;-1.010;2023-02-23T02:05:50;100674.16;;;5.41;78.01
62946;BME280;52164;52.212;-1.010;2023-02-23T02:08:16;100674.60;;;5.44;77.87
62946;BME280;52164;52.212;-1.010;2023-02-23T02:10:43;100678.38;;;5.47;77.94
62946;BME280;52164;52.212;-1.010;2023-02-23T02:13:10;100678.58;;;5.49;77.77
62946;BME280;52164;52.212;-1.010;2023-02-23T02:16:13;100678.09;;;5.50;77.62
62946;BME280;52164;52.212;-1.010;2023-02-23T02:18:34;100680.95;;;5.52;77.63
62946;BME280;52164;52.212;-1.010;2023-02-23T02:21:23;100682.36;;;5.52;77.40
62946;BME280;52164;52.212;-1.010;2023-02-23T02:26:33;100679.70;;;5.51;77.52
62946;BME280;52164;52.212;-1.010;2023-02-23T02:29:14;100680.70;;;5.49;77.33
62946;BME280;52164;52.212;-1.010;2023-02-23T02:31:55;100680.29;;;5.46;77.38
62946;BME280;52164;52.212;-1.010;2023-02-23T02:34:34;100678.48;;;5.44;77.35
62946;BME280;52164;52.212;-1.010;2023-02-23T02:37:26;100679.85;;;5.42;77.54
62946;BME280;52164;52.212;-1.010;2023-02-23T02:39:58;100680.71;;;5.41;77.43
62946;BME280;52164;52.212;-1.010;2023-02-23T02:43:18;100678.80;;;5.43;77.71
62946;BME280;52164;52.212;-1.010;2023-02-23T02:46:09;100677.76;;;5.44;77.77
62946;BME280;52164;52.212;-1.010;2023-02-23T02:48:26;100680.98;;;5.45;77.92
62946;BME280;52164;52.212;-1.010;2023-02-23T02:51:01;100685.23;;;5.45;77.73
62946;BME280;52164;52.212;-1.010;2023-02-23T02:53:35;100686.12;;;5.45;77.93
62946;BME280;52164;52.212;-1.010;2023-02-23T02:56:06;100687.02;;;5.46;78.05
62946;BME280;52164;52.212;-1.010;2023-02-23T02:58:32;100684.02;;;5.46;78.06
62946;BME280;52164;52.212;-1.010;2023-02-23T03:01:04;100686.66;;;5.45;78.34
62946;BME280;52164;52.212;-1.010;2023-02-23T03:03:49;100684.55;;;5.46;78.31
62946;BME280;52164;52.212;-1.010;2023-02-23T03:06:45;100686.15;;;5.47;78.40
62946;BME280;52164;52.212;-1.010;2023-02-23T03:12:21;100691.02;;;5.51;78.21
62946;BME280;52164;52.212;-1.010;2023-02-23T03:15:15;100684.23;;;5.49;78.22
62946;BME280;52164;52.212;-1.010;2023-02-23T03:18:09;100686.69;;;5.47;78.31
62946;BME280;52164;52.212;-1.010;2023-02-23T03:21:03;100687.52;;;5.45;78.32
62946;BME280;52164;52.212;-1.010;2023-02-23T03:24:09;100690.45;;;5.41;78.16
62946;BME280;52164;52.212;-1.010;2023-02-23T03:26:56;100694.07;;;5.38;78.44
62946;BME280;52164;52.212;-1.010;2023-02-23T03:30:50;100698.46;;;5.36;78.65
62946;BME280;52164;52.212;-1.010;2023-02-23T03:32:49;100704.46;;;5.35;78.50
62946;BME280;52164;52.212;-1.010;2023-02-23T03:35:45;100700.35;;;5.34;78.71
62946;BME280;52164;52.212;-1.010;2023-02-23T03:38:42;100707.80;;;5.35;78.92
62946;BME280;52164;52.212;-1.010;2023-02-23T03:41:34;100704.27;;;5.36;79.22
62946;BME280;52164;52.212;-1.010;2023-02-23T03:44:22;100711.08;;;5.39;79.32
62946;BME280;52164;52.212;-1.010;2023-02-23T03:47:09;100710.11;;;5.42;79.49
62946;BME280;52164;52.212;-1.010;2023-02-23T03:49:56;100714.64;;;5.46;79.66
62946;BME280;52164;52.212;-1.010;2023-02-23T03:52:45;100717.16;;;5.48;79.49
62946;BME280;52164;52.212;-1.010;2023-02-23T03:55:33;100713.28;;;5.49;79.42
62946;BME280;52164;52.212;-1.010;2023-02-23T03:58:21;100721.82;;;5.50;79.86
62946;BME280;52164;52.212;-1.010;2023-02-23T04:01:08;100717.77;;;5.52;79.62
62946;BME280;52164;52.212;-1.010;2023-02-23T04:03:55;100724.50;;;5.52;79.68
62946;BME280;52164;52.212;-1.010;2023-02-23T04:06:42;100725.42;;;5.53;79.62
62946;BME280;52164;52.212;-1.010;2023-02-23T04:09:28;100727.23;;;5.55;79.55
62946;BME280;52164;52.212;-1.010;2023-02-23T04:12:49;100722.67;;;5.56;79.50
62946;BME280;52164;52.212;-1.010;2023-02-23T04:15:22;100726.06;;;5.58;79.33
62946;BME280;52164;52.212;-1.010;2023-02-23T04:17:51;100732.27;;;5.58;79.28
62946;BME280;52164;52.212;-1.010;2023-02-23T04:20:16;100734.74;;;5.57;79.27
62946;BME280;52164;52.212;-1.010;2023-02-23T04:22:42;100737.16;;;5.56;79.17
62946;BME280;52164;52.212;-1.010;2023-02-23T04:25:07;100741.04;;;5.55;79.23
62946;BME280;52164;52.212;-1.010;2023-02-23T04:27:35;100738.17;;;5.53;79.31
62946;BME280;52164;52.212;-1.010;2023-02-23T04:30:00;100736.58;;;5.53;79.05
62946;BME280;52164;52.212;-1.010;2023-02-23T04:32:27;100736.73;;;5.52;79.42
62946;BME280;52164;52.212;-1.010;2023-02-23T04:34:52;100740.05;;;5.51;79.21
62946;BME280;52164;52.212;-1.010;2023-02-23T04:37:18;100745.00;;;5.50;79.48
62946;BME280;52164;52.212;-1.010;2023-02-23T04:39:43;100746.59;;;5.51;79.56
62946;BME280;52164;52.212;-1.010;2023-02-23T04:42:14;100746.23;;;5.50;79.23
62946;BME280;52164;52.212;-1.010;2023-02-23T04:44:39;100751.38;;;5.50;78.98
62946;BME280;52164;52.212;-1.010;2023-02-23T04:47:04;100756.33;;;5.50;79.05
62946;BME280;52164;52.212;-1.010;2023-02-23T04:49:30;100759.46;;;5.48;78.69
62946;BME280;52164;52.212;-1.010;2023-02-23T04:51:55;100758.92;;;5.47;78.99
62946;BME280;52164;52.212;-1.010;2023-02-23T04:54:20;100761.23;;;5.48;78.93
62946;BME280;52164;52.212;-1.010;2023-02-23T04:56:46;100763.21;;;5.50;79.14
62946;BME280;52164;52.212;-1.010;2023-02-23T04:59:11;100764.32;;;5.51;79.21
62946;BME280;52164;52.212;-1.010;2023-02-23T05:01:37;100768.11;;;5.54;79.23
62946;BME280;52164;52.212;-1.010;2023-02-23T05:04:02;100770.81;;;5.56;78.99
62946;BME280;52164;52.212;-1.010;2023-02-23T05:06:29;100777.07;;;5.58;79.11
62946;BME280;52164;52.212;-1.010;2023-02-23T05:08:54;100782.96;;;5.60;78.95
62946;BME280;52164;52.212;-1.010;2023-02-23T05:11:19;100782.05;;;5.60;79.10
62946;BME280;52164;52.212;-1.010;2023-02-23T05:13:45;100779.98;;;5.61;78.93
62946;BME280;52164;52.212;-1.010;2023-02-23T05:16:10;100783.74;;;5.64;78.89
62946;BME280;52164;52.212;-1.010;2023-02-23T05:18:35;100779.35;;;5.65;79.00
62946;BME280;52164;52.212;-1.010;2023-02-23T05:21:02;100782.76;;;5.66;78.80
62946;BME280;52164;52.212;-1.010;2023-02-23T05:23:27;100783.80;;;5.66;78.89
62946;BME280;52164;52.212;-1.010;2023-02-23T05:25:53;100786.58;;;5.64;78.65
62946;BME280;52164;52.212;-1.010;2023-02-23T05:28:24;100788.66;;;5.62;78.57
62946;BME280;52164;52.212;-1.010;2023-02-23T05:30:50;100795.68;;;5.59;78.66
62946;BME280;52164;52.212;-1.010;2023-02-23T05:33:15;100800.59;;;5.58;78.62
62946;BME280;52164;52.212;-1.010;2023-02-23T05:35:40;100803.95;;;5.57;78.62
62946;BME280;52164;52.212;-1.010;2023-02-23T05:38:05;100809.95;;;5.56;78.65
62946;BME280;52164;52.212;-1.010;2023-02-23T05:40:31;100809.91;;;5.55;78.46
62946;BME280;52164;52.212;-1.010;2023-02-23T05:42:57;100818.39;;;5.54;78.29
62946;BME280;52164;52.212;-1.010;2023-02-23T05:45:23;100815.67;;;5.52;78.57
62946;BME280;52164;52.212;-1.010;2023-02-23T05:47:48;100819.55;;;5.51;78.59
62946;BME280;52164;52.212;-1.010;2023-02-23T05:50:14;100821.12;;;5.50;78.58
62946;BME280;52164;52.212;-1.010;2023-02-23T05:52:39;100821.84;;;5.51;78.58
62946;BME280;52164;52.212;-1.010;2023-02-23T05:55:06;100822.38;;;5.51;78.37
62946;BME280;52164;52.212;-1.010;2023-02-23T05:57:31;100819.70;;;5.50;78.53
62946;BME280;52164;52.212;-1.010;2023-02-23T05:59:56;100822.77;;;5.53;78.56
62946;BME280;52164;52.212;-1.010;2023-02-23T06:02:22;100821.36;;;5.53;78.53
62946;BME280;52164;52.212;-1.010;2023-02-23T06:04:47;100829.75;;;5.55;78.33
62946;BME280;52164;52.212;-1.010;2023-02-23T06:07:12;100825.19;;;5.57;78.42
62946;BME280;52164;52.212;-1.010;2023-02-23T06:09:38;100827.70;;;5.58;78.49
62946;BME280;52164;52.212;-1.010;2023-02-23T06:12:03;100831.28;;;5.60;78.19
62946;BME280;52164;52.212;-1.010;2023-02-23T06:14:29;100834.50;;;5.61;78.31
62946;BME280;52164;52.212;-1.010;2023-02-23T06:16:54;100835.95;;;5.62;78.27
62946;BME280;52164;52.212;-1.010;2023-02-23T06:19:19;100843.75;;;5.63;78.20
62946;BME280;52164;52.212;-1.010;2023-02-23T06:21:45;100843.23;;;5.63;78.13
62946;BME280;52164;52.212;-1.010;2023-02-23T06:24:10;100849.40;;;5.62;78.13
62946;BME280;52164;52.212;-1.010;2023-02-23T06:26:36;100856.09;;;5.60;77.87
62946;BME280;52164;52.212;-1.010;2023-02-23T06:29:05;100858.70;;;5.59;77.95
62946;BME280;52164;52.212;-1.010;2023-02-23T06:31:30;100864.30;;;5.56;77.67
62946;BME280;52164;52.212;-1.010;2023-02-23T06:33:56;100872.73;;;5.54;77.75
62946;BME280;52164;52.212;-1.010;2023-02-23T06:36:21;100877.82;;;5.52;77.53
62946;BME280;52164;52.212;-1.010;2023-02-23T06:38:46;100881.96;;;5.48;77.54
62946;BME280;52164;52.212;-1.010;2023-02-23T06:41:12;100881.16;;;5.44;77.47
62946;BME280;52164;52.212;-1.010;2023-02-23T06:43:39;100884.29;;;5.42;77.40
62946;BME280;52164;52.212;-1.010;2023-02-23T06:46:05;100883.67;;;5.39;77.35
62946;BME280;52164;52.212;-1.010;2023-02-23T06:48:30;100887.90;;;5.38;77.47
62946;BME280;52164;52.212;-1.010;2023-02-23T06:50:57;100892.66;;;5.38;77.32
62946;BME280;52164;52.212;-1.010;2023-02-23T06:53:22;100902.05;;;5.39;77.59
62946;BME280;52164;52.212;-1.010;2023-02-23T06:55:47;100907.19;;;5.38;77.44
62946;BME280;52164;52.212;-1.010;2023-02-23T06:58:13;100913.50;;;5.42;77.64
62946;BME280;52164;52.212;-1.010;2023-02-23T07:00:38;100914.23;;;5.43;77.49
62946;BME280;52164;52.212;-1.010;2023-02-23T07:03:07;100909.45;;;5.42;77.44
62946;BME280;52164;52.212;-1.010;2023-02-23T07:05:32;100913.20;;;5.44;77.71
62946;BME280;52164;52.212;-1.010;2023-02-23T07:07:57;100925.33;;;5.47;77.73
62946;BME280;52164;52.212;-1.010;2023-02-23T07:10:23;100931.45;;;5.52;77.61
62946;BME280;52164;52.212;-1.010;2023-02-23T07:12:48;100934.48;;;5.52;77.48
62946;BME280;52164;52.212;-1.010;2023-02-23T07:15:13;100939.42;;;5.52;77.64
62946;BME280;52164;52.212;-1.010;2023-02-23T07:17:41;100949.15;;;5.52;77.41
62946;BME280;52164;52.212;-1.010;2023-02-23T07:20:08;100951.23;;;5.50;77.44
62946;BME280;52164;52.212;-1.010;2023-02-23T07:22:34;100956.85;;;5.48;77.40
62946;BME280;52164;52.212;-1.010;2023-02-23T07:25:00;100966.20;;;5.47;77.48
62946;BME280;52164;52.212;-1.010;2023-02-23T07:27:25;100978.56;;;5.45;77.38
62946;BME280;52164;52.212;-1.010;2023-02-23T07:29:52;100987.58;;;5.45;77.36
62946;BME280;52164;52.212;-1.010;2023-02-23T07:32:17;100998.71;;;5.44;77.08
62946;BME280;52164;52.212;-1.010;2023-02-23T07:34:43;101006.81;;;5.42;77.16
62946;BME280;52164;52.212;-1.010;2023-02-23T07:37:09;101009.38;;;5.40;77.34
62946;BME280;52164;52.212;-1.010;2023-02-23T07:39:34;101015.73;;;5.39;77.13
62946;BME280;52164;52.212;-1.010;2023-02-23T07:42:00;101019.09;;;5.39;77.11
62946;BME280;52164;52.212;-1.010;2023-02-23T07:44:25;101018.57;;;5.39;77.18
62946;BME280;52164;52.212;-1.010;2023-02-23T07:46:50;101016.63;;;5.40;77.10
62946;BME280;52164;52.212;-1.010;2023-02-23T07:49:16;101010.08;;;5.40;76.97
62946;BME280;52164;52.212;-1.010;2023-02-23T07:51:42;101006.02;;;5.40;76.79
62946;BME280;52164;52.212;-1.010;2023-02-23T07:54:07;101009.71;;;5.39;76.88
62946;BME280;52164;52.212;-1.010;2023-02-23T07:56:32;101017.27;;;5.37;76.69
62946;BME280;52164;52.212;-1.010;2023-02-23T07:58:58;101021.86;;;5.37;76.58
62946;BME280;52164;52.212;-1.010;2023-02-23T08:01:23;101029.46;;;5.37;76.59
62946;BME280;52164;52.212;-1.010;2023-02-23T08:03:49;101035.44;;;5.36;76.55
62946;BME280;52164;52.212;-1.010;2023-02-23T08:06:15;101036.36;;;5.37;76.60
62946;BME280;52164;52.212;-1.010;2023-02-23T08:08:41;101047.86;;;5.37;76.58
62946;BME280;52164;52.212;-1.010;2023-02-23T08:11:06;101050.95;;;5.39;76.50
62946;BME280;52164;52.212;-1.010;2023-02-23T08:13:31;101042.90;;;5.42;76.18
62946;BME280;52164;52.212;-1.010;2023-02-23T08:15:57;101043.52;;;5.45;76.14
62946;BME280;52164;52.212;-1.010;2023-02-23T08:18:23;101039.13;;;5.46;76.02
62946;BME280;52164;52.212;-1.010;2023-02-23T08:20:48;101038.87;;;5.50;76.01
62946;BME280;52164;52.212;-1.010;2023-02-23T08:23:14;101041.60;;;5.53;75.81
62946;BME280;52164;52.212;-1.010;2023-02-23T08:25:42;101042.27;;;5.56;75.47
62946;BME280;52164;52.212;-1.010;2023-02-23T08:28:07;101044.02;;;5.56;75.51
62946;BME280;52164;52.212;-1.010;2023-02-23T08:30:33;101044.67;;;5.55;75.42
62946;BME280;52164;52.212;-1.010;2023-02-23T08:32:59;101043.56;;;5.54;75.33
62946;BME280;52164;52.212;-1.010;2023-02-23T08:35:25;101044.98;;;5.54;75.25
62946;BME280;52164;52.212;-1.010;2023-02-23T08:37:51;101051.90;;;5.54;75.26
62946;BME280;52164;52.212;-1.010;2023-02-23T08:40:16;101057.81;;;5.56;75.15
62946;BME280;52164;52.212;-1.010;2023-02-23T08:42:43;101067.48;;;5.59;75.20
62946;BME280;52164;52.212;-1.010;2023-02-23T08:45:10;101062.66;;;5.64;75.08
62946;BME280;52164;52.212;-1.010;2023-02-23T08:47:35;101060.25;;;5.67;74.78
62946;BME280;52164;52.212;-1.010;2023-02-23T08:50:01;101058.83;;;5.67;74.63
62946;BME280;52164;52.212;-1.010;2023-02-23T08:52:26;101057.40;;;5.67;74.72
62946;BME280;52164;52.212;-1.010;2023-02-23T08:54:51;101060.76;;;5.66;74.70
62946;BME280;52164;52.212;-1.010;2023-02-23T08:57:16;101059.84;;;5.64;74.58
62946;BME280;52164;52.212;-1.010;2023-02-23T08:59:42;101067.23;;;5.69;74.76
62946;BME280;52164;52.212;-1.010;2023-02-23T09:02:10;101074.60;;;5.79;74.85
62946;BME280;52164;52.212;-1.010;2023-02-23T09:04:36;101080.14;;;5.93;74.67
62946;BME280;52164;52.212;-1.010;2023-02-23T09:07:01;101084.91;;;6.05;74.41
62946;BME280;52164;52.212;-1.010;2023-02-23T09:09:26;101087.34;;;6.15;74.30
62946;BME280;52164;52.212;-1.010;2023-02-23T09:11:52;101085.15;;;6.27;74.22
62946;BME280;52164;52.212;-1.010;2023-02-23T09:14:17;101077.77;;;6.36;73.92
62946;BME280;52164;52.212;-1.010;2023-02-23T09:16:43;101073.00;;;6.43;73.48
62946;BME280;52164;52.212;-1.010;2023-02-23T09:19:09;101063.73;;;6.49;73.45
62946;BME280;52164;52.212;-1.010;2023-02-23T09:21:34;101068.39;;;6.50;72.95
62946;BME280;52164;52.212;-1.010;2023-02-23T09:24:00;101071.02;;;6.49;72.97
62946;BME280;52164;52.212;-1.010;2023-02-23T09:26:25;101072.09;;;6.50;72.95
62946;BME280;52164;52.212;-1.010;2023-02-23T09:28:53;101073.55;;;6.51;72.44
62946;BME280;52164;52.212;-1.010;2023-02-23T09:31:22;101075.21;;;6.54;72.43
62946;BME280;52164;52.212;-1.010;2023-02-23T09:33:48;101080.94;;;6.56;72.42
62946;BME280;52164;52.212;-1.010;2023-02-23T09:36:15;101077.91;;;6.55;72.45
62946;BME280;52164;52.212;-1.010;2023-02-23T09:38:41;101080.62;;;6.57;72.76
62946;BME280;52164;52.212;-1.010;2023-02-23T09:43:49;101079.44;;;6.66;72.76
62946;BME280;52164;52.212;-1.010;2023-02-23T09:46:37;101083.95;;;6.69;72.62
62946;BME280;52164;52.212;-1.010;2023-02-23T09:49:05;101088.55;;;6.76;72.30
62946;BME280;52164;52.212;-1.010;2023-02-23T09:51:37;101096.35;;;6.83;72.02
62946;BME280;52164;52.212;-1.010;2023-02-23T09:54:04;101099.13;;;6.89;72.26
62946;BME280;52164;52.212;-1.010;2023-02-23T09:56:36;101099.08;;;6.93;72.05
62946;BME280;52164;52.212;-1.010;2023-02-23T09:59:03;101099.23;;;6.93;71.32
62946;BME280;52164;52.212;-1.010;2023-02-23T10:03:42;101097.95;;;6.91;71.78
62946;BME280;52164;52.212;-1.010;2023-02-23T10:04:19;101099.43;;;6.86;71.24
62946;BME280;52164;52.212;-1.010;2023-02-23T10:06:49;101102.20;;;6.82;71.58
62946;BME280;52164;52.212;-1.010;2023-02-23T10:11:45;101104.16;;;6.77;71.46
62946;BME280;52164;52.212;-1.010;2023-02-23T10:16:43;101103.58;;;6.82;71.44
62946;BME280;52164;52.212;-1.010;2023-02-23T10:21:37;101108.70;;;6.80;71.30
62946;BME280;52164;52.212;-1.010;2023-02-23T10:24:12;101109.69;;;6.78;71.41
62946;BME280;52164;52.212;-1.010;2023-02-23T10:26:42;101113.20;;;6.77;71.25
62946;BME280;52164;52.212;-1.010;2023-02-23T10:29:18;101113.77;;;6.78;71.24
62946;BME280;52164;52.212;-1.010;2023-02-23T10:31:47;101113.49;;;6.81;71.12
62946;BME280;52164;52.212;-1.010;2023-02-23T10:34:14;101113.29;;;6.87;71.10
62946;BME280;52164;52.212;-1.010;2023-02-23T10:36:42;101113.65;;;6.95;71.05
62946;BME280;52164;52.212;-1.010;2023-02-23T10:39:10;101112.55;;;7.08;70.40
62946;BME280;52164;52.212;-1.010;2023-02-23T10:41:36;101109.44;;;7.19;70.48
62946;BME280;52164;52.212;-1.010;2023-02-23T10:44:03;101108.25;;;7.29;70.02
62946;BME280;52164;52.212;-1.010;2023-02-23T10:46:30;101106.83;;;7.36;69.64
62946;BME280;52164;52.212;-1.010;2023-02-23T10:48:59;101111.55;;;7.42;69.75
62946;BME280;52164;52.212;-1.010;2023-02-23T10:51:25;101106.45;;;7.44;69.60
62946;BME280;52164;52.212;-1.010;2023-02-23T10:53:53;101110.69;;;7.51;69.16
62946;BME280;52164;52.212;-1.010;2023-02-23T10:56:18;101111.40;;;7.59;68.61
62946;BME280;52164;52.212;-1.010;2023-02-23T10:58:48;101109.67;;;7.62;68.27
62946;BME280;52164;52.212;-1.010;2023-02-23T11:01:15;101117.92;;;7.64;68.17
62946;BME280;52164;52.212;-1.010;2023-02-23T11:03:43;101117.72;;;7.63;68.21
62946;BME280;52164;52.212;-1.010;2023-02-23T11:06:40;101115.46;;;7.66;67.93
62946;BME280;52164;52.212;-1.010;2023-02-23T11:08:54;101112.73;;;7.71;68.34
62946;BME280;52164;52.212;-1.010;2023-02-23T11:11:22;101113.27;;;7.79;68.41
62946;BME280;52164;52.212;-1.010;2023-02-23T11:13:50;101113.27;;;7.89;68.06
62946;BME280;52164;52.212;-1.010;2023-02-23T11:16:17;101118.67;;;8.10;68.09
62946;BME280;52164;52.212;-1.010;2023-02-23T11:18:56;101122.60;;;8.29;67.57
62946;BME280;52164;52.212;-1.010;2023-02-23T11:21:25;101123.25;;;8.44;67.24
62946;BME280;52164;52.212;-1.010;2023-02-23T11:23:52;101122.42;;;8.57;66.90
62946;BME280;52164;52.212;-1.010;2023-02-23T11:26:20;101125.12;;;8.69;66.20
62946;BME280;52164;52.212;-1.010;2023-02-23T11:28:48;101123.90;;;8.80;65.89
62946;BME280;52164;52.212;-1.010;2023-02-23T11:31:19;101127.50;;;8.92;65.78
62946;BME280;52164;52.212;-1.010;2023-02-23T11:33:46;101134.07;;;9.02;65.53
62946;BME280;52164;52.212;-1.010;2023-02-23T11:38:39;101141.51;;;9.01;65.16
62946;BME280;52164;52.212;-1.010;2023-02-23T11:41:09;101142.17;;;8.98;65.00
62946;BME280;52164;52.212;-1.010;2023-02-23T11:43:46;101142.14;;;8.96;64.81
62946;BME280;52164;52.212;-1.010;2023-02-23T11:46:11;101145.10;;;8.91;64.74
62946;BME280;52164;52.212;-1.010;2023-02-23T11:48:46;101144.13;;;8.87;64.65
62946;BME280;52164;52.212;-1.010;2023-02-23T11:51:21;101149.52;;;8.79;64.62
62946;BME280;52164;52.212;-1.010;2023-02-23T11:53:46;101150.48;;;8.73;64.82
62946;BME280;52164;52.212;-1.010;2023-02-23T11:56:12;101146.31;;;8.69;64.54
62946;BME280;52164;52.212;-1.010;2023-02-23T11:58:44;101143.89;;;8.62;65.02
62946;BME280;52164;52.212;-1.010;2023-02-23T12:01:12;101140.66;;;8.61;64.87
62946;BME280;52164;52.212;-1.010;2023-02-23T12:03:43;101141.88;;;8.59;64.69
62946;BME280;52164;52.212;-1.010;2023-02-23T12:06:09;101139.56;;;8.60;64.63
62946;BME280;52164;52.212;-1.010;2023-02-23T12:08:38;101141.02;;;8.62;64.32
62946;BME280;52164;52.212;-1.010;2023-02-23T12:11:06;101141.84;;;8.68;64.09
62946;BME280;52164;52.212;-1.010;2023-02-23T12:13:39;101142.66;;;8.74;64.02
62946;BME280;52164;52.212;-1.010;2023-02-23T12:16:09;101146.88;;;8.81;64.13
62946;BME280;52164;52.212;-1.010;2023-02-23T12:21:04;101148.92;;;8.97;64.59
62946;BME280;52164;52.212;-1.010;2023-02-23T12:23:32;101148.86;;;9.03;64.40
62946;BME280;52164;52.212;-1.010;2023-02-23T12:26:00;101145.19;;;9.08;64.35
62946;BME280;52164;52.212;-1.010;2023-02-23T12:28:32;101139.23;;;9.13;63.89
62946;BME280;52164;52.212;-1.010;2023-02-23T12:32:05;101134.55;;;9.22;63.69
62946;BME280;52164;52.212;-1.010;2023-02-23T12:33:49;101131.23;;;9.39;63.46
62946;BME280;52164;52.212;-1.010;2023-02-23T12:36:22;101123.94;;;9.51;62.97
62946;BME280;52164;52.212;-1.010;2023-02-23T12:38:52;101129.40;;;9.60;62.84
62946;BME280;52164;52.212;-1.010;2023-02-23T12:41:20;101130.67;;;9.75;62.42
62946;BME280;52164;52.212;-1.010;2023-02-23T12:43:52;101123.88;;;9.87;62.22
62946;BME280;52164;52.212;-1.010;2023-02-23T12:46:20;101120.45;;;9.98;61.81
62946;BME280;52164;52.212;-1.010;2023-02-23T12:51:32;101118.04;;;10.05;61.39
62946;BME280;52164;52.212;-1.010;2023-02-23T12:54:00;101116.11;;;10.10;61.03
62946;BME280;52164;52.212;-1.010;2023-02-23T12:56:28;101120.27;;;10.13;60.78
62946;BME280;52164;52.212;-1.010;2023-02-23T12:59:02;101115.81;;;10.14;60.55
62946;BME280;52164;52.212;-1.010;2023-02-23T13:06:25;101110.46;;;9.98;60.55
62946;BME280;52164;52.212;-1.010;2023-02-23T13:08:55;101109.35;;;9.94;60.65
62946;BME280;52164;52.212;-1.010;2023-02-23T13:09:29;101108.09;;;9.94;60.37
62946;BME280;52164;52.212;-1.010;2023-02-23T13:12:10;101109.69;;;9.93;60.40
62946;BME280;52164;52.212;-1.010;2023-02-23T13:14:48;101106.80;;;9.90;60.47
62946;BME280;52164;52.212;-1.010;2023-02-23T13:17:36;101111.77;;;9.88;60.36
62946;BME280;52164;52.212;-1.010;2023-02-23T13:20:04;101112.09;;;9.85;60.29
62946;BME280;52164;52.212;-1.010;2023-02-23T13:25:19;101105.23;;;9.78;60.18
62946;BME280;52164;52.212;-1.010;2023-02-23T13:27:48;101111.74;;;9.72;60.59
62946;BME280;52164;52.212;-1.010;2023-02-23T13:30:15;101119.48;;;9.63;60.36
62946;BME280;52164;52.212;-1.010;2023-02-23T13:32:41;101124.46;;;9.51;59.98